createdAt,value
2018-07-31T00:00:44.286Z,5.33
2018-07-31T00:03:12.656Z,4.97
2018-07-31T00:05:40.960Z,4.60
2018-07-31T00:08:09.252Z,4.97
2018-07-31T00:10:37.707Z,4.73
2018-07-31T00:13:06.116Z,5.13
2018-07-31T00:15:34.411Z,5.33
2018-07-31T00:18:02.768Z,4.70
2018-07-31T00:20:31.148Z,4.57
2018-07-31T00:22:59.455Z,5.17
2018-07-31T00:25:27.742Z,5.00
2018-07-31T00:27:56.046Z,5.60
2018-07-31T00:30:24.543Z,5.40
2018-07-31T00:32:52.867Z,4.93
2018-07-31T00:35:21.216Z,4.93
2018-07-31T00:37:49.507Z,4.83
2018-07-31T00:40:17.807Z,4.87
2018-07-31T00:42:46.118Z,4.97
2018-07-31T00:45:14.423Z,4.90
2018-07-31T00:47:42.804Z,4.50
2018-07-31T00:50:11.092Z,4.57
2018-07-31T00:52:39.411Z,4.37
2018-07-31T00:55:07.932Z,4.87
2018-07-31T00:57:36.247Z,4.40
2018-07-31T01:00:04.967Z,4.37
2018-07-31T01:02:33.222Z,4.23
2018-07-31T01:05:01.499Z,4.50
2018-07-31T01:07:29.861Z,4.73
2018-07-31T01:09:58.202Z,4.80
2018-07-31T01:12:26.499Z,4.83
2018-07-31T01:14:54.770Z,4.60
2018-07-31T01:17:23.133Z,5.43
2018-07-31T01:19:51.431Z,5.40
2018-07-31T01:22:19.787Z,5.10
2018-07-31T01:24:48.179Z,5.23
2018-07-31T01:27:16.549Z,5.37
2018-07-31T01:29:44.847Z,4.90
2018-07-31T01:32:13.139Z,4.57
2018-07-31T01:34:41.436Z,4.93
2018-07-31T01:37:09.708Z,5.30
2018-07-31T01:39:38.010Z,4.97
2018-07-31T01:42:06.285Z,4.67
2018-07-31T01:44:34.584Z,4.57
2018-07-31T01:47:02.855Z,4.77
2018-07-31T01:49:31.167Z,4.60
2018-07-31T01:51:59.462Z,4.77
2018-07-31T01:54:27.784Z,4.83
2018-07-31T01:56:56.096Z,4.47
2018-07-31T01:59:24.410Z,4.70
2018-07-31T02:01:52.433Z,4.50
2018-07-31T02:04:20.788Z,4.37
2018-07-31T02:06:49.071Z,4.80
2018-07-31T02:09:17.367Z,4.83
2018-07-31T02:11:45.659Z,4.90
2018-07-31T02:14:13.950Z,4.73
2018-07-31T02:16:42.255Z,4.93
2018-07-31T02:19:10.583Z,5.30
2018-07-31T02:21:38.886Z,5.10
2018-07-31T02:24:07.310Z,5.20
2018-07-31T02:26:35.606Z,5.27
2018-07-31T02:29:03.970Z,4.50
2018-07-31T02:31:32.240Z,4.60
2018-07-31T02:34:00.540Z,5.00
2018-07-31T02:36:28.826Z,4.80
2018-07-31T02:38:57.134Z,4.30
2018-07-31T02:41:25.435Z,4.73
2018-07-31T02:43:53.783Z,4.93
2018-07-31T02:46:22.084Z,4.50
2018-07-31T02:48:50.387Z,4.70
2018-07-31T02:51:18.847Z,4.80
2018-07-31T02:53:47.150Z,5.00
2018-07-31T02:56:15.475Z,5.10
2018-07-31T02:58:43.770Z,5.67
2018-07-31T03:01:12.031Z,4.70
2018-07-31T03:03:40.067Z,4.97
2018-07-31T03:06:08.335Z,5.27
2018-07-31T03:08:36.651Z,4.70
2018-07-31T03:11:04.932Z,5.00
2018-07-31T03:13:33.240Z,4.97
2018-07-31T03:16:01.511Z,4.97
2018-07-31T03:18:29.806Z,4.50
2018-07-31T03:20:58.083Z,5.07
2018-07-31T03:23:26.429Z,5.40
2018-07-31T03:25:54.747Z,4.70
2018-07-31T03:28:23.069Z,4.63
2018-07-31T03:30:51.373Z,4.67
2018-07-31T03:33:19.651Z,5.10
2018-07-31T03:35:48.023Z,4.87
2018-07-31T03:38:16.343Z,4.63
2018-07-31T03:40:44.631Z,5.30
2018-07-31T03:43:12.935Z,5.90
2018-07-31T03:45:41.225Z,5.10
2018-07-31T03:48:09.518Z,5.40
2018-07-31T03:50:37.818Z,5.27
2018-07-31T03:53:06.106Z,5.77
2018-07-31T03:55:34.448Z,5.10
2018-07-31T03:58:02.809Z,5.47
2018-07-31T04:00:31.101Z,5.23
2018-07-31T04:02:59.585Z,5.50
2018-07-31T04:05:27.905Z,5.30
2018-07-31T04:07:56.235Z,5.33
2018-07-31T04:10:24.566Z,5.63
2018-07-31T04:12:52.885Z,5.60
2018-07-31T04:15:21.180Z,5.63
2018-07-31T04:17:57.678Z,5.90
2018-07-31T04:20:26.733Z,6.40
2018-07-31T04:22:55.063Z,6.73
2018-07-31T04:25:23.915Z,5.67
2018-07-31T04:27:52.212Z,5.97
2018-07-31T04:30:20.511Z,5.93
2018-07-31T04:32:48.797Z,5.73
2018-07-31T04:35:17.161Z,5.30
2018-07-31T04:37:45.166Z,5.17
2018-07-31T04:40:13.455Z,5.10
2018-07-31T04:42:41.738Z,4.47
2018-07-31T04:45:11.034Z,5.10
2018-07-31T04:47:39.807Z,5.00
2018-07-31T04:50:08.806Z,4.77
2018-07-31T04:52:37.078Z,5.27
2018-07-31T04:55:05.461Z,4.80
2018-07-31T04:57:33.826Z,5.13
2018-07-31T05:00:02.140Z,5.47
2018-07-31T05:02:30.461Z,4.90
2018-07-31T05:04:59.006Z,5.03
2018-07-31T05:07:27.332Z,5.00
2018-07-31T05:09:55.645Z,4.80
2018-07-31T05:12:23.939Z,5.50
2018-07-31T05:14:52.284Z,4.83
2018-07-31T05:17:20.587Z,5.10
2018-07-31T05:19:48.995Z,5.23
2018-07-31T05:22:17.333Z,5.00
2018-07-31T05:24:45.657Z,5.07
2018-07-31T05:27:14.010Z,5.27
2018-07-31T05:29:42.400Z,4.97
2018-07-31T05:32:10.711Z,5.00
2018-07-31T05:34:39.019Z,5.03
2018-07-31T05:37:07.419Z,4.70
2018-07-31T05:39:35.725Z,4.50
2018-07-31T05:42:04.895Z,4.67
2018-07-31T05:44:33.825Z,5.03
2018-07-31T05:47:02.120Z,5.17
2018-07-31T05:49:30.444Z,5.03
2018-07-31T05:51:58.775Z,5.60
2018-07-31T05:54:27.098Z,4.90
2018-07-31T05:56:55.641Z,4.63
2018-07-31T05:59:23.947Z,5.00
2018-07-31T06:01:52.239Z,4.97
2018-07-31T06:04:20.655Z,4.63
2018-07-31T06:06:48.947Z,4.50
2018-07-31T06:09:18.255Z,4.70
2018-07-31T06:11:46.571Z,4.37
2018-07-31T06:14:14.897Z,4.33
2018-07-31T06:16:43.218Z,4.33
2018-07-31T06:19:11.688Z,5.00
2018-07-31T06:21:40.010Z,4.27
2018-07-31T06:24:08.304Z,4.77
2018-07-31T06:26:36.620Z,4.53
2018-07-31T06:29:04.909Z,4.57
2018-07-31T06:31:33.262Z,4.43
2018-07-31T06:34:01.660Z,4.70
2018-07-31T06:36:29.995Z,4.73
2018-07-31T06:38:58.338Z,4.50
2018-07-31T06:41:26.703Z,4.70
2018-07-31T06:43:55.020Z,4.80
2018-07-31T06:46:23.359Z,4.87
2018-07-31T06:48:51.696Z,4.63
2018-07-31T06:51:20.024Z,4.67
2018-07-31T06:53:48.327Z,4.57
2018-07-31T06:56:16.657Z,5.00
2018-07-31T06:58:44.960Z,4.33
2018-07-31T07:01:13.174Z,4.40
2018-07-31T07:03:41.519Z,4.30
2018-07-31T07:06:09.863Z,4.00
2018-07-31T07:08:38.170Z,4.70
2018-07-31T07:11:06.561Z,4.40
2018-07-31T07:13:34.867Z,5.00
2018-07-31T07:16:03.371Z,4.10
2018-07-31T07:18:31.687Z,4.40
2018-07-31T07:21:00.016Z,4.73
2018-07-31T07:23:28.306Z,4.53
2018-07-31T07:25:56.792Z,4.57
2018-07-31T07:28:25.089Z,4.17
2018-07-31T07:30:53.419Z,4.13
2018-07-31T07:33:21.716Z,4.40
2018-07-31T07:35:50.295Z,4.40
2018-07-31T07:38:18.595Z,4.10
2018-07-31T07:40:46.927Z,4.53
2018-07-31T07:43:15.263Z,4.30
2018-07-31T07:45:43.677Z,4.00
2018-07-31T07:48:12.181Z,4.13
2018-07-31T07:50:40.665Z,4.40
2018-07-31T07:53:09.177Z,4.43
2018-07-31T07:55:38.202Z,4.43
2018-07-31T07:58:06.612Z,3.80
2018-07-31T08:00:34.930Z,4.03
2018-07-31T08:03:03.474Z,4.40
2018-07-31T08:05:31.796Z,4.30
2018-07-31T08:08:00.121Z,4.13
2018-07-31T08:10:28.468Z,4.07
2018-07-31T08:12:56.971Z,3.93
2018-07-31T08:15:25.307Z,3.93
2018-07-31T08:17:53.630Z,3.83
2018-07-31T08:20:22.095Z,4.30
2018-07-31T08:22:50.379Z,4.10
2018-07-31T08:25:18.726Z,11.03
2018-07-31T08:27:47.159Z,5.20
2018-07-31T08:30:15.434Z,15.00
2018-07-31T08:32:43.799Z,5.50
2018-07-31T08:35:12.099Z,4.90
2018-07-31T08:37:40.458Z,4.00
2018-07-31T08:40:08.787Z,3.70
2018-07-31T08:42:37.115Z,3.47
2018-07-31T08:45:05.546Z,3.57
2018-07-31T08:47:34.088Z,3.70
2018-07-31T08:50:02.557Z,3.40
2018-07-31T08:52:30.895Z,3.60
2018-07-31T08:54:59.208Z,3.67
2018-07-31T08:57:27.550Z,3.80
2018-07-31T08:59:55.896Z,3.45
2018-07-31T09:02:24.235Z,3.92
2018-07-31T09:04:52.785Z,4.72
2018-07-31T09:07:21.114Z,4.22
2018-07-31T09:09:49.453Z,4.12
2018-07-31T09:12:17.753Z,4.45
2018-07-31T09:14:46.047Z,4.30
2018-07-31T09:17:14.334Z,4.05
2018-07-31T09:19:42.612Z,4.00
2018-07-31T09:22:10.961Z,3.40
2018-07-31T09:24:39.322Z,3.27
2018-07-31T09:27:07.627Z,3.45
2018-07-31T09:29:35.907Z,3.87
2018-07-31T09:32:04.191Z,3.87
2018-07-31T09:34:36.683Z,3.98
2018-07-31T09:37:04.963Z,3.83
2018-07-31T09:39:33.248Z,3.80
2018-07-31T09:42:02.372Z,3.85
2018-07-31T09:44:30.662Z,3.08
2018-07-31T09:46:58.943Z,3.80
2018-07-31T09:49:27.223Z,3.22
2018-07-31T09:51:55.514Z,2.90
2018-07-31T09:54:23.811Z,3.50
2018-07-31T09:56:52.277Z,3.35
2018-07-31T09:59:20.544Z,3.30
2018-07-31T10:01:48.887Z,3.37
2018-07-31T10:04:17.214Z,3.30
2018-07-31T10:06:45.532Z,3.37
2018-07-31T10:09:13.843Z,3.33
2018-07-31T10:11:42.188Z,3.30
2018-07-31T10:14:10.493Z,3.05
2018-07-31T10:16:38.751Z,3.50
2018-07-31T10:19:07.059Z,23.35
2018-07-31T10:21:35.342Z,7.37
2018-07-31T10:24:03.650Z,4.28
2018-07-31T10:26:31.954Z,2.90
2018-07-31T10:29:00.252Z,3.35
2018-07-31T10:31:28.516Z,3.50
2018-07-31T10:33:56.795Z,3.00
2018-07-31T10:36:25.066Z,3.25
2018-07-31T10:38:53.371Z,3.55
2018-07-31T10:41:21.673Z,3.60
2018-07-31T10:43:49.993Z,4.33
2018-07-31T10:46:18.250Z,3.33
2018-07-31T10:48:46.531Z,3.20
2018-07-31T10:51:14.844Z,3.27
2018-07-31T10:53:43.153Z,3.25
2018-07-31T10:56:11.446Z,3.40
2018-07-31T10:58:39.569Z,3.52
2018-07-31T11:01:07.804Z,3.40
2018-07-31T11:03:36.138Z,3.15
2018-07-31T11:06:04.503Z,3.50
2018-07-31T11:08:32.838Z,3.60
2018-07-31T11:11:01.168Z,3.50
2018-07-31T11:13:29.501Z,3.35
2018-07-31T11:15:57.786Z,3.40
2018-07-31T11:18:26.106Z,3.20
2018-07-31T11:20:54.465Z,3.98
2018-07-31T11:23:22.911Z,4.53
2018-07-31T11:25:51.261Z,3.17
2018-07-31T11:28:19.621Z,3.50
2018-07-31T11:30:47.940Z,3.45
2018-07-31T11:33:16.269Z,3.52
2018-07-31T11:35:44.618Z,3.70
2018-07-31T11:38:12.943Z,3.27
2018-07-31T11:40:41.283Z,3.42
2018-07-31T11:43:09.640Z,3.33
2018-07-31T11:45:37.965Z,3.30
2018-07-31T11:48:06.296Z,3.45
2018-07-31T11:50:34.623Z,3.52
2018-07-31T11:53:02.910Z,3.60
2018-07-31T11:55:31.443Z,3.50
2018-07-31T11:57:59.772Z,3.40
2018-07-31T12:00:28.091Z,3.65
2018-07-31T12:02:56.421Z,3.58
2018-07-31T12:05:24.743Z,3.90
2018-07-31T12:07:53.064Z,3.30
2018-07-31T12:10:21.520Z,3.90
2018-07-31T12:12:49.876Z,3.50
2018-07-31T12:15:18.217Z,4.50
2018-07-31T12:17:46.537Z,6.60
2018-07-31T12:20:15.261Z,4.40
2018-07-31T12:22:43.599Z,3.47
2018-07-31T12:25:11.988Z,3.62
2018-07-31T12:27:40.340Z,3.30
2018-07-31T12:30:10.204Z,3.50
2018-07-31T12:32:39.084Z,3.40
2018-07-31T12:35:07.452Z,3.67
2018-07-31T12:37:35.765Z,3.77
2018-07-31T12:40:05.008Z,3.47
2018-07-31T12:42:33.416Z,3.25
2018-07-31T12:45:01.781Z,3.60
2018-07-31T12:47:30.056Z,3.75
2018-07-31T12:49:58.451Z,3.27
2018-07-31T12:52:26.743Z,3.37
2018-07-31T12:54:55.077Z,3.58
2018-07-31T12:57:23.563Z,3.35
2018-07-31T12:59:51.899Z,3.58
2018-07-31T13:02:20.532Z,3.60
2018-07-31T13:04:49.061Z,3.37
2018-07-31T13:07:17.376Z,3.87
2018-07-31T13:09:45.730Z,4.47
2018-07-31T13:12:14.091Z,4.80
2018-07-31T13:14:42.408Z,3.40
2018-07-31T13:17:10.715Z,3.47
2018-07-31T13:19:39.027Z,2.98
2018-07-31T13:22:07.355Z,3.52
2018-07-31T13:24:35.705Z,3.35
2018-07-31T13:27:04.023Z,3.47
2018-07-31T13:29:32.366Z,3.35
2018-07-31T13:32:00.771Z,3.02
2018-07-31T13:34:29.132Z,3.70
2018-07-31T13:36:57.436Z,3.05
2018-07-31T13:39:25.769Z,3.00
2018-07-31T13:41:54.086Z,3.27
2018-07-31T13:44:22.431Z,3.52
2018-07-31T13:46:50.792Z,3.12
2018-07-31T13:49:19.409Z,3.08
2018-07-31T13:51:47.647Z,3.25
2018-07-31T13:54:15.694Z,2.90
2018-07-31T13:56:44.023Z,3.30
2018-07-31T13:59:12.327Z,2.90
2018-07-31T14:01:40.943Z,2.90
2018-07-31T14:04:09.313Z,3.00
2018-07-31T14:06:37.593Z,3.17
2018-07-31T14:09:08.818Z,2.87
2018-07-31T14:11:37.284Z,2.80
2018-07-31T14:14:05.622Z,2.65
2018-07-31T14:16:34.255Z,3.05
2018-07-31T14:19:02.603Z,2.80
2018-07-31T14:21:30.950Z,2.70
2018-07-31T14:23:59.262Z,2.70
2018-07-31T14:26:27.622Z,2.62
2018-07-31T14:28:55.942Z,2.60
2018-07-31T14:31:24.295Z,2.55
2018-07-31T14:33:52.635Z,2.60
2018-07-31T14:36:20.988Z,2.67
2018-07-31T14:38:49.563Z,3.55
2018-07-31T14:41:18.550Z,3.08
2018-07-31T14:43:46.906Z,2.83
2018-07-31T14:46:16.262Z,2.05
2018-07-31T14:48:44.806Z,2.87
2018-07-31T14:51:13.115Z,2.40
2018-07-31T14:53:42.070Z,2.00
2018-07-31T14:56:11.070Z,2.30
2018-07-31T14:58:39.397Z,2.20
2018-07-31T15:01:07.848Z,2.15
2018-07-31T15:03:36.192Z,2.45
2018-07-31T15:06:04.571Z,2.40
2018-07-31T15:08:36.558Z,1.95
2018-07-31T15:11:05.049Z,2.42
2018-07-31T15:13:33.633Z,2.40
2018-07-31T15:16:02.069Z,2.77
2018-07-31T15:18:30.429Z,2.20
2018-07-31T15:20:58.820Z,2.30
2018-07-31T15:23:27.210Z,2.00
2018-07-31T15:25:55.852Z,1.92
2018-07-31T15:28:24.156Z,2.08
2018-07-31T15:30:52.518Z,2.10
2018-07-31T15:33:20.835Z,1.90
2018-07-31T15:35:49.194Z,2.00
2018-07-31T15:38:17.503Z,2.12
2018-07-31T15:40:45.928Z,2.20
2018-07-31T15:43:14.542Z,1.77
2018-07-31T15:45:42.998Z,2.80
2018-07-31T15:48:11.385Z,2.45
2018-07-31T15:50:39.693Z,1.60
2018-07-31T15:53:08.136Z,2.33
2018-07-31T15:55:36.523Z,1.95
2018-07-31T15:58:04.872Z,1.60
2018-07-31T16:00:33.357Z,1.70
2018-07-31T16:03:01.795Z,2.05
2018-07-31T16:05:30.134Z,1.77
2018-07-31T16:07:58.441Z,1.70
2018-07-31T16:10:26.797Z,1.70
2018-07-31T16:12:55.111Z,1.87
2018-07-31T16:15:23.473Z,1.60
2018-07-31T16:17:51.833Z,1.90
2018-07-31T16:20:20.210Z,1.65
2018-07-31T16:22:48.621Z,1.47
2018-07-31T16:25:17.084Z,1.67
2018-07-31T16:27:45.404Z,1.60
2018-07-31T16:30:13.454Z,1.80
2018-07-31T16:32:41.910Z,1.70
2018-07-31T16:35:10.268Z,1.60
2018-07-31T16:37:38.592Z,1.80
2018-07-31T16:40:06.981Z,2.05
2018-07-31T16:42:35.339Z,1.75
2018-07-31T16:45:05.042Z,1.90
2018-07-31T16:47:34.746Z,1.85
2018-07-31T16:50:04.019Z,1.57
2018-07-31T16:52:33.150Z,1.70
2018-07-31T16:55:02.290Z,1.80
2018-07-31T16:57:30.754Z,1.90
2018-07-31T16:59:59.063Z,1.80
2018-07-31T17:02:27.413Z,2.12
2018-07-31T17:04:55.750Z,1.60
2018-07-31T17:07:24.174Z,3.50
2018-07-31T17:09:52.534Z,1.92
2018-07-31T17:12:20.942Z,2.77
2018-07-31T17:14:49.300Z,1.80
2018-07-31T17:17:17.617Z,1.87
2018-07-31T17:19:45.895Z,1.82
2018-07-31T17:22:14.270Z,1.82
2018-07-31T17:24:45.447Z,6.47
2018-07-31T17:27:13.888Z,2.33
2018-07-31T17:29:42.402Z,1.92
2018-07-31T17:32:10.844Z,2.00
2018-07-31T17:34:39.153Z,1.90
2018-07-31T17:37:07.487Z,1.82
2018-07-31T17:39:35.555Z,1.62
2018-07-31T17:42:03.980Z,1.85
2018-07-31T17:44:32.415Z,1.80
2018-07-31T17:47:00.888Z,1.90
2018-07-31T17:49:28.994Z,1.77
2018-07-31T17:51:57.536Z,1.60
2018-07-31T17:54:25.695Z,1.70
2018-07-31T17:56:54.164Z,2.30
2018-07-31T17:59:23.611Z,3.95
2018-07-31T18:01:53.212Z,3.55
2018-07-31T18:04:23.860Z,7.72
2018-07-31T18:06:52.645Z,9.55
2018-07-31T18:09:20.978Z,3.90
2018-07-31T18:11:49.439Z,6.15
2018-07-31T18:14:18.146Z,2.12
2018-07-31T18:16:46.571Z,4.65
2018-07-31T18:19:14.867Z,2.17
2018-07-31T18:21:43.228Z,1.80
2018-07-31T18:24:11.547Z,1.60
2018-07-31T18:26:39.864Z,1.65
2018-07-31T18:29:08.241Z,1.80
2018-07-31T18:31:36.558Z,2.10
2018-07-31T18:34:04.941Z,1.72
2018-07-31T18:36:33.273Z,1.75
2018-07-31T18:39:01.585Z,2.00
2018-07-31T18:41:30.044Z,2.27
2018-07-31T18:43:58.395Z,3.08
2018-07-31T18:46:26.735Z,2.70
2018-07-31T18:48:55.125Z,2.10
2018-07-31T18:51:23.526Z,1.87
2018-07-31T18:53:51.610Z,1.85
2018-07-31T18:56:19.664Z,2.00
2018-07-31T18:58:47.995Z,1.82
2018-07-31T19:01:16.685Z,1.90
2018-07-31T19:03:44.988Z,1.98
2018-07-31T19:06:13.276Z,2.60
2018-07-31T19:08:41.751Z,1.92
2018-07-31T19:11:10.063Z,1.90
2018-07-31T19:13:38.405Z,1.87
2018-07-31T19:16:07.082Z,1.85
2018-07-31T19:18:35.627Z,2.10
2018-07-31T19:21:03.992Z,2.30
2018-07-31T19:23:32.330Z,3.33
2018-07-31T19:26:00.414Z,1.87
2018-07-31T19:28:28.787Z,2.25
2018-07-31T19:30:57.145Z,2.50
2018-07-31T19:33:25.498Z,2.20
2018-07-31T19:35:53.614Z,2.00
2018-07-31T19:38:21.706Z,2.17
2018-07-31T19:40:50.202Z,2.10
2018-07-31T19:43:18.551Z,2.20
2018-07-31T19:45:46.855Z,2.02
2018-07-31T19:48:15.307Z,1.80
2018-07-31T19:50:43.660Z,1.82
2018-07-31T19:53:12.020Z,2.30
2018-07-31T19:55:40.328Z,2.10
2018-07-31T19:58:08.681Z,2.25
2018-07-31T20:00:36.994Z,2.20
2018-07-31T20:03:05.329Z,1.90
2018-07-31T20:05:33.654Z,1.92
2018-07-31T20:08:01.969Z,2.20
2018-07-31T20:10:30.319Z,2.08
2018-07-31T20:12:58.650Z,1.82
2018-07-31T20:15:27.050Z,2.55
2018-07-31T20:17:55.380Z,2.27
2018-07-31T20:20:24.695Z,2.10
2018-07-31T20:22:53.103Z,1.92
2018-07-31T20:25:21.531Z,2.25
2018-07-31T20:27:49.861Z,2.55
2018-07-31T20:30:18.329Z,1.85
2018-07-31T20:32:49.465Z,2.20
2018-07-31T20:35:18.074Z,2.00
2018-07-31T20:37:46.423Z,2.05
2018-07-31T20:40:14.933Z,2.00
2018-07-31T20:42:44.203Z,2.27
2018-07-31T20:45:12.749Z,2.10
2018-07-31T20:47:41.288Z,2.00
2018-07-31T20:50:10.424Z,2.12
2018-07-31T20:52:38.786Z,1.70
2018-07-31T20:55:07.335Z,2.33
2018-07-31T20:57:35.796Z,3.00
2018-07-31T21:00:04.865Z,2.40
2018-07-31T21:02:33.249Z,2.70
2018-07-31T21:05:01.686Z,2.08
2018-07-31T21:07:30.260Z,1.87
2018-07-31T21:09:58.786Z,1.85
2018-07-31T21:12:27.206Z,2.27
2018-07-31T21:14:56.056Z,1.90
2018-07-31T21:17:24.504Z,2.40
2018-07-31T21:19:52.961Z,1.53
2018-07-31T21:22:21.340Z,1.80
2018-07-31T21:24:50.580Z,2.10
2018-07-31T21:27:18.988Z,1.70
2018-07-31T21:29:47.580Z,1.70
2018-07-31T21:32:15.938Z,2.10
2018-07-31T21:34:44.861Z,1.90
2018-07-31T21:37:13.149Z,1.95
2018-07-31T21:39:41.557Z,2.07
2018-07-31T21:42:10.063Z,1.53
2018-07-31T21:44:38.430Z,1.65
2018-07-31T21:47:07.184Z,1.50
2018-07-31T21:49:36.047Z,1.60
2018-07-31T21:52:05.405Z,1.60
2018-07-31T21:54:34.503Z,1.50
2018-07-31T21:57:02.860Z,2.00
2018-07-31T21:59:30.943Z,1.93
2018-07-31T22:01:59.299Z,1.90
2018-07-31T22:04:27.690Z,1.83
2018-07-31T22:06:55.749Z,1.70
2018-07-31T22:09:29.479Z,1.43
2018-07-31T22:11:57.927Z,1.70
2018-07-31T22:14:26.392Z,1.10
2018-07-31T22:16:54.739Z,1.47
2018-07-31T22:19:23.148Z,1.80
2018-07-31T22:21:51.507Z,1.40
2018-07-31T22:24:19.923Z,1.50
2018-07-31T22:26:48.271Z,1.70
2018-07-31T22:29:16.809Z,1.60
2018-07-31T22:31:45.436Z,1.30
2018-07-31T22:34:14.506Z,1.40
2018-07-31T22:36:43.156Z,1.40
2018-07-31T22:39:12.327Z,1.30
2018-07-31T22:41:41.427Z,1.50
2018-07-31T22:44:09.771Z,1.63
2018-07-31T22:46:38.290Z,1.27
2018-07-31T22:49:06.701Z,1.40
2018-07-31T22:51:37.110Z,1.63
2018-07-31T22:54:06.233Z,1.60
2018-07-31T22:56:35.555Z,1.40
2018-07-31T22:59:03.938Z,1.30
2018-07-31T23:01:33.429Z,1.30
2018-07-31T23:04:02.061Z,1.30
2018-07-31T23:06:30.469Z,1.30
2018-07-31T23:08:58.801Z,1.63
2018-07-31T23:11:27.385Z,1.50
2018-07-31T23:13:56.761Z,1.57
2018-07-31T23:16:26.055Z,1.67
2018-07-31T23:18:55.567Z,1.53
2018-07-31T23:21:30.883Z,1.50
2018-07-31T23:24:01.131Z,1.47
2018-07-31T23:26:31.336Z,1.70
2018-07-31T23:28:59.771Z,2.00
2018-07-31T23:31:28.568Z,1.60
2018-07-31T23:33:57.856Z,1.80
2018-07-31T23:36:26.270Z,1.60
2018-07-31T23:38:55.263Z,1.63
2018-07-31T23:41:23.691Z,1.50
2018-07-31T23:43:52.263Z,1.77
2018-07-31T23:46:20.812Z,1.50
2018-07-31T23:48:49.216Z,1.80
2018-07-31T23:51:17.600Z,1.73
2018-07-31T23:53:46.458Z,2.13
2018-07-31T23:56:14.828Z,1.93
2018-07-31T23:58:43.824Z,1.60
